sensor_id;sensor_type;location;lat;lon;timestamp;P1;durP1;ratioP1;P2;durP2;ratioP2
75386;SDS011;63966;47.914;22.266;2023-08-30T00:00:23;9.70;;;4.80;;
75386;SDS011;63966;47.914;22.266;2023-08-30T00:03:27;10.30;;;4.90;;
75386;SDS011;63966;47.914;22.266;2023-08-30T00:06:31;9.07;;;4.78;;
75386;SDS011;63966;47.914;22.266;2023-08-30T00:09:34;8.70;;;4.97;;
75386;SDS011;63966;47.914;22.266;2023-08-30T00:12:38;8.33;;;5.17;;
75386;SDS011;63966;47.914;22.266;2023-08-30T00:15:41;10.03;;;5.63;;
75386;SDS011;63966;47.914;22.266;2023-08-30T00:18:45;10.60;;;4.93;;
75386;SDS011;63966;47.914;22.266;2023-08-30T00:21:48;9.15;;;4.88;;
75386;SDS011;63966;47.914;22.266;2023-08-30T00:24:52;10.57;;;4.60;;
75386;SDS011;63966;47.914;22.266;2023-08-30T00:27:55;8.87;;;4.97;;
75386;SDS011;63966;47.914;22.266;2023-08-30T00:30:59;10.30;;;5.33;;
75386;SDS011;63966;47.914;22.266;2023-08-30T00:34:02;10.98;;;5.15;;
75386;SDS011;63966;47.914;22.266;2023-08-30T00:37:05;7.80;;;4.70;;
75386;SDS011;63966;47.914;22.266;2023-08-30T00:40:10;11.90;;;4.88;;
75386;SDS011;63966;47.914;22.266;2023-08-30T00:43:14;9.37;;;5.30;;
75386;SDS011;63966;47.914;22.266;2023-08-30T00:46:18;11.27;;;5.23;;
75386;SDS011;63966;47.914;22.266;2023-08-30T00:49:21;12.38;;;5.03;;
75386;SDS011;63966;47.914;22.266;2023-08-30T00:52:26;8.07;;;4.90;;
75386;SDS011;63966;47.914;22.266;2023-08-30T00:55:30;7.97;;;4.53;;
75386;SDS011;63966;47.914;22.266;2023-08-30T00:58:35;9.27;;;4.87;;
75386;SDS011;63966;47.914;22.266;2023-08-30T01:01:40;9.70;;;5.33;;
75386;SDS011;63966;47.914;22.266;2023-08-30T01:04:45;10.18;;;5.22;;
75386;SDS011;63966;47.914;22.266;2023-08-30T01:07:52;10.50;;;4.80;;
75386;SDS011;63966;47.914;22.266;2023-08-30T01:14:07;9.07;;;4.83;;
75386;SDS011;63966;47.914;22.266;2023-08-30T01:17:34;11.47;;;5.33;;
75386;SDS011;63966;47.914;22.266;2023-08-30T01:20:39;8.98;;;5.15;;
75386;SDS011;63966;47.914;22.266;2023-08-30T01:23:53;11.57;;;5.53;;
75386;SDS011;63966;47.914;22.266;2023-08-30T01:27:10;9.82;;;4.30;;
75386;SDS011;63966;47.914;22.266;2023-08-30T01:30:16;9.10;;;4.77;;
75386;SDS011;63966;47.914;22.266;2023-08-30T01:33:21;7.63;;;4.13;;
75386;SDS011;63966;47.914;22.266;2023-08-30T01:36:26;8.68;;;4.28;;
75386;SDS011;63966;47.914;22.266;2023-08-30T01:39:29;10.77;;;4.50;;
75386;SDS011;63966;47.914;22.266;2023-08-30T01:42:34;10.48;;;4.53;;
75386;SDS011;63966;47.914;22.266;2023-08-30T01:45:39;9.50;;;4.93;;
75386;SDS011;63966;47.914;22.266;2023-08-30T01:48:46;8.13;;;4.33;;
75386;SDS011;63966;47.914;22.266;2023-08-30T01:51:51;10.20;;;4.53;;
75386;SDS011;63966;47.914;22.266;2023-08-30T01:54:55;9.05;;;5.00;;
75386;SDS011;63966;47.914;22.266;2023-08-30T01:57:59;8.57;;;4.57;;
75386;SDS011;63966;47.914;22.266;2023-08-30T02:01:03;11.40;;;5.00;;
75386;SDS011;63966;47.914;22.266;2023-08-30T02:04:06;8.97;;;4.47;;
75386;SDS011;63966;47.914;22.266;2023-08-30T02:07:17;11.38;;;5.05;;
75386;SDS011;63966;47.914;22.266;2023-08-30T02:10:28;8.27;;;4.70;;
75386;SDS011;63966;47.914;22.266;2023-08-30T02:13:36;10.40;;;5.05;;
75386;SDS011;63966;47.914;22.266;2023-08-30T02:16:41;8.33;;;5.10;;
75386;SDS011;63966;47.914;22.266;2023-08-30T02:19:47;10.10;;;4.73;;
75386;SDS011;63966;47.914;22.266;2023-08-30T02:22:54;10.95;;;4.72;;
75386;SDS011;63966;47.914;22.266;2023-08-30T02:26:01;9.50;;;4.85;;
75386;SDS011;63966;47.914;22.266;2023-08-30T02:29:08;7.97;;;4.68;;
75386;SDS011;63966;47.914;22.266;2023-08-30T02:32:12;8.40;;;4.87;;
75386;SDS011;63966;47.914;22.266;2023-08-30T02:35:17;10.07;;;4.83;;
75386;SDS011;63966;47.914;22.266;2023-08-30T02:38:20;11.50;;;5.03;;
75386;SDS011;63966;47.914;22.266;2023-08-30T02:41:24;10.18;;;5.10;;
75386;SDS011;63966;47.914;22.266;2023-08-30T02:44:27;8.70;;;4.60;;
75386;SDS011;63966;47.914;22.266;2023-08-30T02:47:30;11.10;;;5.50;;
75386;SDS011;63966;47.914;22.266;2023-08-30T02:50:35;9.63;;;5.00;;
75386;SDS011;63966;47.914;22.266;2023-08-30T02:53:38;10.77;;;5.57;;
75386;SDS011;63966;47.914;22.266;2023-08-30T02:56:42;8.75;;;5.20;;
75386;SDS011;63966;47.914;22.266;2023-08-30T02:59:46;9.90;;;5.03;;
75386;SDS011;63966;47.914;22.266;2023-08-30T03:02:50;9.50;;;5.50;;
75386;SDS011;63966;47.914;22.266;2023-08-30T03:05:53;9.97;;;5.47;;
75386;SDS011;63966;47.914;22.266;2023-08-30T03:08:58;10.07;;;4.85;;
75386;SDS011;63966;47.914;22.266;2023-08-30T03:12:02;8.52;;;4.80;;
75386;SDS011;63966;47.914;22.266;2023-08-30T03:15:07;8.38;;;4.75;;
75386;SDS011;63966;47.914;22.266;2023-08-30T03:18:10;10.60;;;5.43;;
75386;SDS011;63966;47.914;22.266;2023-08-30T03:21:14;10.67;;;5.20;;
75386;SDS011;63966;47.914;22.266;2023-08-30T03:24:17;10.40;;;5.22;;
75386;SDS011;63966;47.914;22.266;2023-08-30T03:27:21;11.65;;;5.20;;
75386;SDS011;63966;47.914;22.266;2023-08-30T03:30:24;10.55;;;5.60;;
75386;SDS011;63966;47.914;22.266;2023-08-30T03:33:28;11.20;;;5.63;;
75386;SDS011;63966;47.914;22.266;2023-08-30T03:36:31;9.87;;;5.80;;
75386;SDS011;63966;47.914;22.266;2023-08-30T03:39:35;12.82;;;5.63;;
75386;SDS011;63966;47.914;22.266;2023-08-30T03:42:38;9.55;;;4.70;;
75386;SDS011;63966;47.914;22.266;2023-08-30T03:45:42;8.68;;;4.80;;
75386;SDS011;63966;47.914;22.266;2023-08-30T03:48:48;9.50;;;4.70;;
75386;SDS011;63966;47.914;22.266;2023-08-30T03:51:52;9.17;;;5.10;;
75386;SDS011;63966;47.914;22.266;2023-08-30T03:54:55;9.35;;;4.80;;
75386;SDS011;63966;47.914;22.266;2023-08-30T03:57:58;10.68;;;5.03;;
75386;SDS011;63966;47.914;22.266;2023-08-30T04:01:02;8.43;;;5.00;;
75386;SDS011;63966;47.914;22.266;2023-08-30T04:04:06;10.57;;;4.70;;
75386;SDS011;63966;47.914;22.266;2023-08-30T04:07:09;9.77;;;5.03;;
75386;SDS011;63966;47.914;22.266;2023-08-30T04:10:12;10.70;;;5.25;;
75386;SDS011;63966;47.914;22.266;2023-08-30T04:13:16;11.48;;;5.38;;
75386;SDS011;63966;47.914;22.266;2023-08-30T04:16:19;10.48;;;4.88;;
75386;SDS011;63966;47.914;22.266;2023-08-30T04:19:23;8.43;;;4.90;;
75386;SDS011;63966;47.914;22.266;2023-08-30T04:22:26;8.90;;;4.90;;
75386;SDS011;63966;47.914;22.266;2023-08-30T04:25:29;8.95;;;4.80;;
75386;SDS011;63966;47.914;22.266;2023-08-30T04:28:33;9.90;;;5.05;;
75386;SDS011;63966;47.914;22.266;2023-08-30T04:31:37;9.48;;;5.38;;
75386;SDS011;63966;47.914;22.266;2023-08-30T04:34:40;10.03;;;4.70;;
75386;SDS011;63966;47.914;22.266;2023-08-30T04:37:43;10.30;;;4.70;;
75386;SDS011;63966;47.914;22.266;2023-08-30T04:40:48;10.70;;;5.32;;
75386;SDS011;63966;47.914;22.266;2023-08-30T04:43:51;7.75;;;4.78;;
75386;SDS011;63966;47.914;22.266;2023-08-30T04:46:54;8.15;;;4.80;;
75386;SDS011;63966;47.914;22.266;2023-08-30T04:49:58;7.10;;;4.43;;
75386;SDS011;63966;47.914;22.266;2023-08-30T04:53:02;8.30;;;4.83;;
75386;SDS011;63966;47.914;22.266;2023-08-30T04:56:10;9.85;;;5.03;;
75386;SDS011;63966;47.914;22.266;2023-08-30T04:59:14;10.45;;;4.90;;
75386;SDS011;63966;47.914;22.266;2023-08-30T05:02:21;7.55;;;4.25;;
75386;SDS011;63966;47.914;22.266;2023-08-30T05:05:30;7.53;;;4.33;;
75386;SDS011;63966;47.914;22.266;2023-08-30T05:08:34;7.43;;;3.90;;
75386;SDS011;63966;47.914;22.266;2023-08-30T05:11:37;7.65;;;4.20;;
75386;SDS011;63966;47.914;22.266;2023-08-30T05:14:40;8.75;;;4.43;;
75386;SDS011;63966;47.914;22.266;2023-08-30T05:17:44;9.45;;;4.15;;
75386;SDS011;63966;47.914;22.266;2023-08-30T05:20:48;7.47;;;4.23;;
75386;SDS011;63966;47.914;22.266;2023-08-30T05:23:51;8.50;;;4.40;;
75386;SDS011;63966;47.914;22.266;2023-08-30T05:26:54;7.38;;;3.83;;
75386;SDS011;63966;47.914;22.266;2023-08-30T05:30:00;7.32;;;4.40;;
75386;SDS011;63966;47.914;22.266;2023-08-30T05:33:05;7.55;;;4.57;;
75386;SDS011;63966;47.914;22.266;2023-08-30T05:36:35;8.90;;;4.47;;
75386;SDS011;63966;47.914;22.266;2023-08-30T05:40:16;8.77;;;4.60;;
75386;SDS011;63966;47.914;22.266;2023-08-30T05:43:20;9.15;;;4.20;;
75386;SDS011;63966;47.914;22.266;2023-08-30T05:46:23;9.52;;;4.65;;
75386;SDS011;63966;47.914;22.266;2023-08-30T05:49:27;10.07;;;4.22;;
75386;SDS011;63966;47.914;22.266;2023-08-30T05:52:31;9.17;;;4.30;;
75386;SDS011;63966;47.914;22.266;2023-08-30T05:55:35;8.27;;;4.23;;
75386;SDS011;63966;47.914;22.266;2023-08-30T05:58:40;7.75;;;3.97;;
75386;SDS011;63966;47.914;22.266;2023-08-30T06:01:43;9.25;;;3.90;;
75386;SDS011;63966;47.914;22.266;2023-08-30T06:04:47;7.68;;;4.35;;
75386;SDS011;63966;47.914;22.266;2023-08-30T06:07:50;8.00;;;4.30;;
75386;SDS011;63966;47.914;22.266;2023-08-30T06:10:54;7.00;;;3.80;;
75386;SDS011;63966;47.914;22.266;2023-08-30T06:13:57;7.15;;;4.13;;
75386;SDS011;63966;47.914;22.266;2023-08-30T06:17:04;7.72;;;3.85;;
75386;SDS011;63966;47.914;22.266;2023-08-30T06:20:07;6.47;;;3.47;;
75386;SDS011;63966;47.914;22.266;2023-08-30T06:23:13;10.55;;;4.07;;
75386;SDS011;63966;47.914;22.266;2023-08-30T06:26:18;7.57;;;4.07;;
75386;SDS011;63966;47.914;22.266;2023-08-30T06:29:21;7.28;;;4.10;;
75386;SDS011;63966;47.914;22.266;2023-08-30T06:32:25;8.13;;;4.18;;
75386;SDS011;63966;47.914;22.266;2023-08-30T06:35:28;6.05;;;3.58;;
75386;SDS011;63966;47.914;22.266;2023-08-30T06:38:33;6.80;;;3.50;;
75386;SDS011;63966;47.914;22.266;2023-08-30T06:41:37;7.70;;;3.93;;
75386;SDS011;63966;47.914;22.266;2023-08-30T06:44:40;6.65;;;3.70;;
75386;SDS011;63966;47.914;22.266;2023-08-30T06:47:44;7.93;;;4.22;;
75386;SDS011;63966;47.914;22.266;2023-08-30T06:50:47;8.95;;;3.90;;
75386;SDS011;63966;47.914;22.266;2023-08-30T06:53:51;8.07;;;4.23;;
75386;SDS011;63966;47.914;22.266;2023-08-30T06:57:00;8.40;;;3.70;;
75386;SDS011;63966;47.914;22.266;2023-08-30T07:00:06;7.28;;;4.00;;
75386;SDS011;63966;47.914;22.266;2023-08-30T07:03:13;8.63;;;4.32;;
75386;SDS011;63966;47.914;22.266;2023-08-30T07:06:17;7.22;;;3.95;;
75386;SDS011;63966;47.914;22.266;2023-08-30T07:09:20;8.73;;;4.20;;
75386;SDS011;63966;47.914;22.266;2023-08-30T07:12:32;6.80;;;3.90;;
75386;SDS011;63966;47.914;22.266;2023-08-30T07:15:36;8.90;;;4.20;;
75386;SDS011;63966;47.914;22.266;2023-08-30T07:18:44;8.50;;;4.53;;
75386;SDS011;63966;47.914;22.266;2023-08-30T07:21:47;7.20;;;3.78;;
75386;SDS011;63966;47.914;22.266;2023-08-30T07:24:51;7.10;;;3.95;;
75386;SDS011;63966;47.914;22.266;2023-08-30T07:27:55;7.27;;;3.97;;
75386;SDS011;63966;47.914;22.266;2023-08-30T07:31:03;7.45;;;4.20;;
75386;SDS011;63966;47.914;22.266;2023-08-30T07:34:09;7.30;;;4.18;;
75386;SDS011;63966;47.914;22.266;2023-08-30T07:37:20;8.35;;;3.70;;
75386;SDS011;63966;47.914;22.266;2023-08-30T07:40:24;6.75;;;4.30;;
75386;SDS011;63966;47.914;22.266;2023-08-30T07:43:32;7.13;;;4.47;;
75386;SDS011;63966;47.914;22.266;2023-08-30T07:46:36;7.85;;;4.20;;
75386;SDS011;63966;47.914;22.266;2023-08-30T07:49:41;8.90;;;4.22;;
75386;SDS011;63966;47.914;22.266;2023-08-30T07:52:45;6.95;;;3.75;;
75386;SDS011;63966;47.914;22.266;2023-08-30T07:55:49;8.75;;;4.28;;
75386;SDS011;63966;47.914;22.266;2023-08-30T07:58:54;9.10;;;4.40;;
75386;SDS011;63966;47.914;22.266;2023-08-30T08:01:57;7.93;;;3.80;;
75386;SDS011;63966;47.914;22.266;2023-08-30T08:05:00;6.68;;;3.90;;
75386;SDS011;63966;47.914;22.266;2023-08-30T08:08:04;10.10;;;3.90;;
75386;SDS011;63966;47.914;22.266;2023-08-30T08:11:08;6.90;;;3.97;;
75386;SDS011;63966;47.914;22.266;2023-08-30T08:14:11;7.60;;;3.80;;
75386;SDS011;63966;47.914;22.266;2023-08-30T08:17:15;7.55;;;4.13;;
75386;SDS011;63966;47.914;22.266;2023-08-30T08:20:18;7.03;;;3.92;;
75386;SDS011;63966;47.914;22.266;2023-08-30T08:23:22;6.85;;;3.88;;
75386;SDS011;63966;47.914;22.266;2023-08-30T08:26:25;8.90;;;4.30;;
75386;SDS011;63966;47.914;22.266;2023-08-30T08:29:29;7.27;;;4.00;;
75386;SDS011;63966;47.914;22.266;2023-08-30T08:32:32;8.02;;;3.70;;
75386;SDS011;63966;47.914;22.266;2023-08-30T08:35:36;6.20;;;4.00;;
75386;SDS011;63966;47.914;22.266;2023-08-30T08:38:39;13.40;;;4.95;;
75386;SDS011;63966;47.914;22.266;2023-08-30T08:41:44;7.97;;;4.00;;
75386;SDS011;63966;47.914;22.266;2023-08-30T08:44:50;9.27;;;4.47;;
75386;SDS011;63966;47.914;22.266;2023-08-30T08:47:54;8.00;;;4.03;;
75386;SDS011;63966;47.914;22.266;2023-08-30T08:50:58;7.45;;;3.60;;
75386;SDS011;63966;47.914;22.266;2023-08-30T08:54:03;7.15;;;3.63;;
75386;SDS011;63966;47.914;22.266;2023-08-30T08:57:07;11.57;;;4.80;;
75386;SDS011;63966;47.914;22.266;2023-08-30T09:00:11;7.43;;;4.07;;
75386;SDS011;63966;47.914;22.266;2023-08-30T09:03:15;6.35;;;3.75;;
75386;SDS011;63966;47.914;22.266;2023-08-30T09:06:21;7.38;;;3.83;;
75386;SDS011;63966;47.914;22.266;2023-08-30T09:09:25;9.27;;;3.45;;
75386;SDS011;63966;47.914;22.266;2023-08-30T09:12:32;9.25;;;4.05;;
75386;SDS011;63966;47.914;22.266;2023-08-30T09:15:36;9.57;;;3.83;;
75386;SDS011;63966;47.914;22.266;2023-08-30T09:18:42;6.65;;;3.97;;
75386;SDS011;63966;47.914;22.266;2023-08-30T09:21:58;9.57;;;4.18;;
75386;SDS011;63966;47.914;22.266;2023-08-30T09:25:01;8.18;;;3.75;;
75386;SDS011;63966;47.914;22.266;2023-08-30T09:28:06;6.45;;;3.38;;
75386;SDS011;63966;47.914;22.266;2023-08-30T09:31:16;7.53;;;3.97;;
75386;SDS011;63966;47.914;22.266;2023-08-30T09:34:24;8.60;;;3.80;;
75386;SDS011;63966;47.914;22.266;2023-08-30T09:37:28;6.88;;;4.10;;
75386;SDS011;63966;47.914;22.266;2023-08-30T09:40:32;6.95;;;3.63;;
75386;SDS011;63966;47.914;22.266;2023-08-30T09:43:41;7.25;;;3.95;;
75386;SDS011;63966;47.914;22.266;2023-08-30T09:46:46;8.07;;;4.60;;
75386;SDS011;63966;47.914;22.266;2023-08-30T09:49:55;6.60;;;4.15;;
75386;SDS011;63966;47.914;22.266;2023-08-30T09:53:07;7.13;;;3.45;;
75386;SDS011;63966;47.914;22.266;2023-08-30T09:56:15;9.10;;;3.83;;
75386;SDS011;63966;47.914;22.266;2023-08-30T09:59:19;6.90;;;3.65;;
75386;SDS011;63966;47.914;22.266;2023-08-30T10:02:23;6.73;;;3.83;;
75386;SDS011;63966;47.914;22.266;2023-08-30T10:05:29;6.88;;;3.83;;
75386;SDS011;63966;47.914;22.266;2023-08-30T10:08:33;7.45;;;4.63;;
75386;SDS011;63966;47.914;22.266;2023-08-30T10:11:39;8.02;;;3.90;;
75386;SDS011;63966;47.914;22.266;2023-08-30T10:14:42;6.65;;;3.60;;
75386;SDS011;63966;47.914;22.266;2023-08-30T10:17:45;6.63;;;3.70;;
75386;SDS011;63966;47.914;22.266;2023-08-30T10:20:50;6.20;;;3.80;;
75386;SDS011;63966;47.914;22.266;2023-08-30T10:23:57;8.18;;;4.13;;
75386;SDS011;63966;47.914;22.266;2023-08-30T10:27:05;7.13;;;3.80;;
75386;SDS011;63966;47.914;22.266;2023-08-30T10:30:10;6.30;;;3.85;;
75386;SDS011;63966;47.914;22.266;2023-08-30T10:33:15;7.53;;;3.90;;
75386;SDS011;63966;47.914;22.266;2023-08-30T10:36:21;6.53;;;3.92;;
75386;SDS011;63966;47.914;22.266;2023-08-30T10:39:33;6.70;;;4.00;;
75386;SDS011;63966;47.914;22.266;2023-08-30T10:42:37;8.63;;;4.03;;
75386;SDS011;63966;47.914;22.266;2023-08-30T10:45:41;7.07;;;4.10;;
75386;SDS011;63966;47.914;22.266;2023-08-30T10:48:45;8.20;;;4.30;;
75386;SDS011;63966;47.914;22.266;2023-08-30T10:51:54;6.78;;;3.72;;
75386;SDS011;63966;47.914;22.266;2023-08-30T10:58:13;7.38;;;3.67;;
75386;SDS011;63966;47.914;22.266;2023-08-30T11:01:17;8.48;;;3.97;;
75386;SDS011;63966;47.914;22.266;2023-08-30T11:04:22;7.00;;;3.60;;
75386;SDS011;63966;47.914;22.266;2023-08-30T11:07:26;7.60;;;3.53;;
75386;SDS011;63966;47.914;22.266;2023-08-30T11:10:29;7.18;;;4.00;;
75386;SDS011;63966;47.914;22.266;2023-08-30T11:13:33;6.10;;;3.60;;
75386;SDS011;63966;47.914;22.266;2023-08-30T11:16:37;7.25;;;3.60;;
75386;SDS011;63966;47.914;22.266;2023-08-30T11:19:40;8.73;;;3.60;;
75386;SDS011;63966;47.914;22.266;2023-08-30T11:22:44;7.15;;;3.80;;
75386;SDS011;63966;47.914;22.266;2023-08-30T11:25:52;7.10;;;4.35;;
75386;SDS011;63966;47.914;22.266;2023-08-30T11:28:56;7.22;;;4.00;;
75386;SDS011;63966;47.914;22.266;2023-08-30T11:31:59;7.68;;;4.28;;
75386;SDS011;63966;47.914;22.266;2023-08-30T11:35:03;7.90;;;4.07;;
75386;SDS011;63966;47.914;22.266;2023-08-30T11:38:07;7.20;;;4.15;;
75386;SDS011;63966;47.914;22.266;2023-08-30T11:41:12;8.82;;;4.32;;
75386;SDS011;63966;47.914;22.266;2023-08-30T11:44:15;6.78;;;3.88;;
75386;SDS011;63966;47.914;22.266;2023-08-30T11:47:19;8.65;;;4.45;;
75386;SDS011;63966;47.914;22.266;2023-08-30T11:50:26;7.10;;;4.20;;
75386;SDS011;63966;47.914;22.266;2023-08-30T11:53:40;10.30;;;4.35;;
75386;SDS011;63966;47.914;22.266;2023-08-30T11:56:44;7.47;;;4.30;;
75386;SDS011;63966;47.914;22.266;2023-08-30T11:59:48;6.95;;;3.95;;
75386;SDS011;63966;47.914;22.266;2023-08-30T12:02:53;12.60;;;4.63;;
75386;SDS011;63966;47.914;22.266;2023-08-30T12:05:57;8.33;;;4.40;;
75386;SDS011;63966;47.914;22.266;2023-08-30T12:09:00;9.48;;;4.32;;
75386;SDS011;63966;47.914;22.266;2023-08-30T12:12:06;7.75;;;4.15;;
75386;SDS011;63966;47.914;22.266;2023-08-30T12:15:13;8.30;;;3.92;;
75386;SDS011;63966;47.914;22.266;2023-08-30T12:18:28;11.93;;;5.03;;
75386;SDS011;63966;47.914;22.266;2023-08-30T12:21:41;9.53;;;4.57;;
75386;SDS011;63966;47.914;22.266;2023-08-30T12:24:45;10.77;;;4.68;;
75386;SDS011;63966;47.914;22.266;2023-08-30T12:27:49;12.20;;;5.68;;
75386;SDS011;63966;47.914;22.266;2023-08-30T12:30:53;13.05;;;6.22;;
75386;SDS011;63966;47.914;22.266;2023-08-30T12:33:57;12.83;;;5.93;;
75386;SDS011;63966;47.914;22.266;2023-08-30T12:37:00;15.30;;;6.97;;
75386;SDS011;63966;47.914;22.266;2023-08-30T12:40:07;14.23;;;7.25;;
75386;SDS011;63966;47.914;22.266;2023-08-30T12:43:15;14.35;;;6.63;;
75386;SDS011;63966;47.914;22.266;2023-08-30T12:46:19;15.00;;;8.13;;
75386;SDS011;63966;47.914;22.266;2023-08-30T12:49:23;15.83;;;8.07;;
75386;SDS011;63966;47.914;22.266;2023-08-30T12:52:26;17.30;;;8.47;;
75386;SDS011;63966;47.914;22.266;2023-08-30T12:55:30;14.10;;;8.93;;
75386;SDS011;63966;47.914;22.266;2023-08-30T12:58:33;15.55;;;8.25;;
75386;SDS011;63966;47.914;22.266;2023-08-30T13:01:37;15.38;;;8.43;;
75386;SDS011;63966;47.914;22.266;2023-08-30T13:04:42;15.10;;;8.63;;
75386;SDS011;63966;47.914;22.266;2023-08-30T13:07:46;15.37;;;8.40;;
75386;SDS011;63966;47.914;22.266;2023-08-30T13:10:50;14.65;;;8.10;;
75386;SDS011;63966;47.914;22.266;2023-08-30T13:13:56;15.13;;;8.98;;
75386;SDS011;63966;47.914;22.266;2023-08-30T13:17:00;16.10;;;9.00;;
75386;SDS011;63966;47.914;22.266;2023-08-30T13:20:03;15.27;;;8.97;;
75386;SDS011;63966;47.914;22.266;2023-08-30T13:23:07;15.67;;;9.20;;
75386;SDS011;63966;47.914;22.266;2023-08-30T13:26:12;13.70;;;8.30;;
75386;SDS011;63966;47.914;22.266;2023-08-30T13:29:16;15.55;;;9.40;;
75386;SDS011;63966;47.914;22.266;2023-08-30T13:32:19;14.07;;;9.32;;
75386;SDS011;63966;47.914;22.266;2023-08-30T13:35:23;13.97;;;8.40;;
75386;SDS011;63966;47.914;22.266;2023-08-30T13:38:26;14.47;;;9.77;;
75386;SDS011;63966;47.914;22.266;2023-08-30T13:41:30;14.95;;;9.05;;
75386;SDS011;63966;47.914;22.266;2023-08-30T13:44:34;14.80;;;9.38;;
75386;SDS011;63966;47.914;22.266;2023-08-30T13:47:39;15.75;;;9.40;;
75386;SDS011;63966;47.914;22.266;2023-08-30T13:50:43;13.83;;;9.13;;
75386;SDS011;63966;47.914;22.266;2023-08-30T13:53:48;12.43;;;8.27;;
75386;SDS011;63966;47.914;22.266;2023-08-30T13:56:52;13.82;;;8.68;;
75386;SDS011;63966;47.914;22.266;2023-08-30T13:59:56;14.73;;;8.90;;
75386;SDS011;63966;47.914;22.266;2023-08-30T14:02:59;13.57;;;8.63;;
75386;SDS011;63966;47.914;22.266;2023-08-30T14:06:03;13.70;;;8.73;;
75386;SDS011;63966;47.914;22.266;2023-08-30T14:09:06;13.30;;;9.43;;
75386;SDS011;63966;47.914;22.266;2023-08-30T14:12:10;15.15;;;8.73;;
75386;SDS011;63966;47.914;22.266;2023-08-30T14:15:14;14.50;;;9.48;;
75386;SDS011;63966;47.914;22.266;2023-08-30T14:18:18;15.50;;;9.75;;
75386;SDS011;63966;47.914;22.266;2023-08-30T14:21:22;17.17;;;10.37;;
75386;SDS011;63966;47.914;22.266;2023-08-30T14:24:25;13.50;;;9.50;;
75386;SDS011;63966;47.914;22.266;2023-08-30T14:27:31;14.13;;;9.77;;
75386;SDS011;63966;47.914;22.266;2023-08-30T14:30:34;16.35;;;9.52;;
75386;SDS011;63966;47.914;22.266;2023-08-30T14:33:41;16.98;;;9.95;;
75386;SDS011;63966;47.914;22.266;2023-08-30T14:36:49;14.87;;;10.20;;
75386;SDS011;63966;47.914;22.266;2023-08-30T14:39:53;14.37;;;9.53;;
75386;SDS011;63966;47.914;22.266;2023-08-30T14:42:56;14.05;;;9.45;;
75386;SDS011;63966;47.914;22.266;2023-08-30T14:46:03;13.30;;;8.98;;
75386;SDS011;63966;47.914;22.266;2023-08-30T14:49:14;15.93;;;9.63;;
75386;SDS011;63966;47.914;22.266;2023-08-30T14:52:18;15.10;;;10.10;;
75386;SDS011;63966;47.914;22.266;2023-08-30T14:55:21;13.47;;;9.10;;
75386;SDS011;63966;47.914;22.266;2023-08-30T14:58:27;13.27;;;8.75;;
75386;SDS011;63966;47.914;22.266;2023-08-30T15:01:30;12.85;;;9.13;;
75386;SDS011;63966;47.914;22.266;2023-08-30T15:04:34;15.02;;;8.20;;
75386;SDS011;63966;47.914;22.266;2023-08-30T15:07:37;12.47;;;8.87;;
75386;SDS011;63966;47.914;22.266;2023-08-30T15:10:41;12.67;;;7.57;;
75386;SDS011;63966;47.914;22.266;2023-08-30T15:13:44;14.88;;;8.57;;
75386;SDS011;63966;47.914;22.266;2023-08-30T15:16:48;14.68;;;8.25;;
75386;SDS011;63966;47.914;22.266;2023-08-30T15:19:51;13.05;;;7.75;;
75386;SDS011;63966;47.914;22.266;2023-08-30T15:22:56;13.43;;;9.30;;
75386;SDS011;63966;47.914;22.266;2023-08-30T15:26:03;12.97;;;8.50;;
75386;SDS011;63966;47.914;22.266;2023-08-30T15:29:07;12.10;;;8.15;;
75386;SDS011;63966;47.914;22.266;2023-08-30T15:32:11;13.32;;;8.45;;
75386;SDS011;63966;47.914;22.266;2023-08-30T15:35:14;13.95;;;8.45;;
75386;SDS011;63966;47.914;22.266;2023-08-30T15:38:18;10.40;;;7.37;;
75386;SDS011;63966;47.914;22.266;2023-08-30T15:41:21;11.73;;;7.90;;
75386;SDS011;63966;47.914;22.266;2023-08-30T15:44:25;11.15;;;7.85;;
75386;SDS011;63966;47.914;22.266;2023-08-30T15:47:28;11.85;;;8.00;;
75386;SDS011;63966;47.914;22.266;2023-08-30T15:50:31;12.57;;;8.35;;
75386;SDS011;63966;47.914;22.266;2023-08-30T15:53:35;13.80;;;8.57;;
75386;SDS011;63966;47.914;22.266;2023-08-30T15:56:39;14.27;;;8.60;;
75386;SDS011;63966;47.914;22.266;2023-08-30T15:59:43;13.13;;;8.48;;
75386;SDS011;63966;47.914;22.266;2023-08-30T16:02:46;13.85;;;8.90;;
75386;SDS011;63966;47.914;22.266;2023-08-30T16:05:50;15.05;;;7.95;;
75386;SDS011;63966;47.914;22.266;2023-08-30T16:08:54;14.67;;;8.53;;
75386;SDS011;63966;47.914;22.266;2023-08-30T16:11:57;14.03;;;8.33;;
75386;SDS011;63966;47.914;22.266;2023-08-30T16:15:01;12.55;;;8.15;;
75386;SDS011;63966;47.914;22.266;2023-08-30T16:18:05;11.55;;;7.88;;
75386;SDS011;63966;47.914;22.266;2023-08-30T16:21:08;15.18;;;8.85;;
75386;SDS011;63966;47.914;22.266;2023-08-30T16:24:12;14.20;;;9.23;;
75386;SDS011;63966;47.914;22.266;2023-08-30T16:27:15;8.43;;;5.00;;
75386;SDS011;63966;47.914;22.266;2023-08-30T16:30:19;7.82;;;3.30;;
75386;SDS011;63966;47.914;22.266;2023-08-30T16:33:22;6.70;;;2.17;;
75386;SDS011;63966;47.914;22.266;2023-08-30T16:36:26;4.55;;;2.00;;
75386;SDS011;63966;47.914;22.266;2023-08-30T16:39:29;6.00;;;1.90;;
75386;SDS011;63966;47.914;22.266;2023-08-30T16:42:33;4.70;;;1.90;;
75386;SDS011;63966;47.914;22.266;2023-08-30T16:45:36;4.78;;;2.00;;
75386;SDS011;63966;47.914;22.266;2023-08-30T16:48:39;6.05;;;2.13;;
75386;SDS011;63966;47.914;22.266;2023-08-30T16:51:43;7.45;;;2.10;;
75386;SDS011;63966;47.914;22.266;2023-08-30T16:54:47;5.03;;;2.13;;
75386;SDS011;63966;47.914;22.266;2023-08-30T16:57:50;4.40;;;2.27;;
75386;SDS011;63966;47.914;22.266;2023-08-30T17:00:54;5.00;;;2.08;;
75386;SDS011;63966;47.914;22.266;2023-08-30T17:03:58;6.55;;;2.40;;
75386;SDS011;63966;47.914;22.266;2023-08-30T17:07:01;6.07;;;2.20;;
75386;SDS011;63966;47.914;22.266;2023-08-30T17:10:06;6.43;;;2.47;;
75386;SDS011;63966;47.914;22.266;2023-08-30T17:13:10;6.67;;;2.30;;
75386;SDS011;63966;47.914;22.266;2023-08-30T17:16:14;5.97;;;2.55;;
75386;SDS011;63966;47.914;22.266;2023-08-30T17:19:18;6.65;;;2.42;;
75386;SDS011;63966;47.914;22.266;2023-08-30T17:22:21;5.10;;;2.25;;
75386;SDS011;63966;47.914;22.266;2023-08-30T17:25:25;8.13;;;2.70;;
75386;SDS011;63966;47.914;22.266;2023-08-30T17:28:29;5.93;;;2.33;;
75386;SDS011;63966;47.914;22.266;2023-08-30T17:31:33;5.63;;;2.35;;
75386;SDS011;63966;47.914;22.266;2023-08-30T17:34:37;7.00;;;2.53;;
75386;SDS011;63966;47.914;22.266;2023-08-30T17:37:42;9.93;;;2.40;;
75386;SDS011;63966;47.914;22.266;2023-08-30T17:40:46;5.87;;;2.27;;
75386;SDS011;63966;47.914;22.266;2023-08-30T17:43:49;7.53;;;2.47;;
75386;SDS011;63966;47.914;22.266;2023-08-30T17:46:53;6.35;;;2.22;;
75386;SDS011;63966;47.914;22.266;2023-08-30T17:49:56;7.10;;;2.30;;
75386;SDS011;63966;47.914;22.266;2023-08-30T17:53:00;5.32;;;2.17;;
75386;SDS011;63966;47.914;22.266;2023-08-30T17:56:04;6.73;;;2.70;;
75386;SDS011;63966;47.914;22.266;2023-08-30T17:59:09;5.77;;;2.33;;
75386;SDS011;63966;47.914;22.266;2023-08-30T18:02:13;6.25;;;2.40;;
75386;SDS011;63966;47.914;22.266;2023-08-30T18:05:17;5.65;;;2.63;;
75386;SDS011;63966;47.914;22.266;2023-08-30T18:08:20;7.90;;;2.40;;
75386;SDS011;63966;47.914;22.266;2023-08-30T18:11:24;5.83;;;2.00;;
75386;SDS011;63966;47.914;22.266;2023-08-30T18:14:28;11.23;;;2.33;;